sensor_id;sensor_type;location;lat;lon;timestamp;P1;durP1;ratioP1;P2;durP2;ratioP2
21110;SDS011;10713;51.912;4.494;2023-10-31T00:01:04;2.70;;;1.10;;
21110;SDS011;10713;51.912;4.494;2023-10-31T00:03:31;1.95;;;1.30;;
21110;SDS011;10713;51.912;4.494;2023-10-31T00:05:56;2.70;;;1.20;;
21110;SDS011;10713;51.912;4.494;2023-10-31T00:08:22;5.20;;;1.20;;
21110;SDS011;10713;51.912;4.494;2023-10-31T00:10:49;6.68;;;1.17;;
21110;SDS011;10713;51.912;4.494;2023-10-31T00:13:14;2.22;;;1.45;;
21110;SDS011;10713;51.912;4.494;2023-10-31T00:15:39;3.00;;;1.63;;
21110;SDS011;10713;51.912;4.494;2023-10-31T00:18:05;4.20;;;1.67;;
21110;SDS011;10713;51.912;4.494;2023-10-31T00:20:30;7.43;;;2.00;;
21110;SDS011;10713;51.912;4.494;2023-10-31T00:22:56;4.55;;;1.67;;
21110;SDS011;10713;51.912;4.494;2023-10-31T00:25:21;6.03;;;1.92;;
21110;SDS011;10713;51.912;4.494;2023-10-31T00:27:46;5.10;;;1.98;;
21110;SDS011;10713;51.912;4.494;2023-10-31T00:30:11;4.13;;;2.60;;
21110;SDS011;10713;51.912;4.494;2023-10-31T00:32:37;11.10;;;2.38;;
21110;SDS011;10713;51.912;4.494;2023-10-31T00:35:02;6.78;;;2.10;;
21110;SDS011;10713;51.912;4.494;2023-10-31T00:37:28;8.23;;;1.92;;
21110;SDS011;10713;51.912;4.494;2023-10-31T00:39:53;4.68;;;2.35;;
21110;SDS011;10713;51.912;4.494;2023-10-31T00:42:18;7.35;;;2.13;;
21110;SDS011;10713;51.912;4.494;2023-10-31T00:44:44;6.25;;;2.47;;
21110;SDS011;10713;51.912;4.494;2023-10-31T00:47:09;6.60;;;2.13;;
21110;SDS011;10713;51.912;4.494;2023-10-31T00:49:35;4.45;;;1.55;;
21110;SDS011;10713;51.912;4.494;2023-10-31T00:52:00;6.40;;;2.33;;
21110;SDS011;10713;51.912;4.494;2023-10-31T00:54:26;5.25;;;2.63;;
21110;SDS011;10713;51.912;4.494;2023-10-31T00:56:51;2.90;;;2.00;;
21110;SDS011;10713;51.912;4.494;2023-10-31T00:59:16;6.07;;;2.85;;
21110;SDS011;10713;51.912;4.494;2023-10-31T01:01:42;7.65;;;1.90;;
21110;SDS011;10713;51.912;4.494;2023-10-31T01:04:08;4.35;;;1.83;;
21110;SDS011;10713;51.912;4.494;2023-10-31T01:06:33;4.38;;;2.05;;
21110;SDS011;10713;51.912;4.494;2023-10-31T01:08:59;2.88;;;1.50;;
21110;SDS011;10713;51.912;4.494;2023-10-31T01:11:24;3.85;;;2.05;;
21110;SDS011;10713;51.912;4.494;2023-10-31T01:13:49;6.80;;;2.42;;
21110;SDS011;10713;51.912;4.494;2023-10-31T01:16:15;6.20;;;2.60;;
21110;SDS011;10713;51.912;4.494;2023-10-31T01:18:40;7.43;;;2.83;;
21110;SDS011;10713;51.912;4.494;2023-10-31T01:21:05;4.35;;;2.03;;
21110;SDS011;10713;51.912;4.494;2023-10-31T01:23:31;6.68;;;1.83;;
21110;SDS011;10713;51.912;4.494;2023-10-31T01:25:56;6.30;;;2.45;;
21110;SDS011;10713;51.912;4.494;2023-10-31T01:28:21;10.10;;;2.25;;
21110;SDS011;10713;51.912;4.494;2023-10-31T01:30:47;4.20;;;2.20;;
21110;SDS011;10713;51.912;4.494;2023-10-31T01:33:12;6.63;;;2.53;;
21110;SDS011;10713;51.912;4.494;2023-10-31T01:35:37;4.25;;;1.70;;
21110;SDS011;10713;51.912;4.494;2023-10-31T01:38:03;5.53;;;1.98;;
21110;SDS011;10713;51.912;4.494;2023-10-31T01:40:28;4.22;;;1.80;;
21110;SDS011;10713;51.912;4.494;2023-10-31T01:42:54;9.25;;;2.60;;
21110;SDS011;10713;51.912;4.494;2023-10-31T01:45:20;6.55;;;1.85;;
21110;SDS011;10713;51.912;4.494;2023-10-31T01:47:46;4.55;;;1.90;;
21110;SDS011;10713;51.912;4.494;2023-10-31T01:50:14;5.63;;;2.10;;
21110;SDS011;10713;51.912;4.494;2023-10-31T01:52:39;3.42;;;1.83;;
21110;SDS011;10713;51.912;4.494;2023-10-31T01:55:05;6.57;;;1.90;;
21110;SDS011;10713;51.912;4.494;2023-10-31T01:57:31;1.80;;;1.27;;
21110;SDS011;10713;51.912;4.494;2023-10-31T01:59:57;3.88;;;1.10;;
21110;SDS011;10713;51.912;4.494;2023-10-31T02:02:23;4.43;;;0.90;;
21110;SDS011;10713;51.912;4.494;2023-10-31T02:04:50;2.50;;;1.17;;
21110;SDS011;10713;51.912;4.494;2023-10-31T02:07:16;4.55;;;1.15;;
21110;SDS011;10713;51.912;4.494;2023-10-31T02:09:41;2.80;;;1.00;;
21110;SDS011;10713;51.912;4.494;2023-10-31T02:12:07;1.60;;;1.05;;
21110;SDS011;10713;51.912;4.494;2023-10-31T02:14:32;2.50;;;1.45;;
21110;SDS011;10713;51.912;4.494;2023-10-31T02:16:58;3.17;;;1.40;;
21110;SDS011;10713;51.912;4.494;2023-10-31T02:19:23;12.30;;;1.35;;
21110;SDS011;10713;51.912;4.494;2023-10-31T02:21:48;4.28;;;1.30;;
21110;SDS011;10713;51.912;4.494;2023-10-31T02:24:14;5.40;;;1.63;;
21110;SDS011;10713;51.912;4.494;2023-10-31T02:26:39;5.22;;;2.00;;
21110;SDS011;10713;51.912;4.494;2023-10-31T02:29:04;3.65;;;1.70;;
21110;SDS011;10713;51.912;4.494;2023-10-31T02:31:31;6.03;;;1.60;;
21110;SDS011;10713;51.912;4.494;2023-10-31T02:33:57;3.58;;;1.50;;
21110;SDS011;10713;51.912;4.494;2023-10-31T02:36:22;2.90;;;0.88;;
21110;SDS011;10713;51.912;4.494;2023-10-31T02:38:48;5.32;;;2.08;;
21110;SDS011;10713;51.912;4.494;2023-10-31T02:41:13;2.22;;;1.08;;
21110;SDS011;10713;51.912;4.494;2023-10-31T02:43:41;6.22;;;1.55;;
21110;SDS011;10713;51.912;4.494;2023-10-31T02:46:06;4.80;;;1.65;;
21110;SDS011;10713;51.912;4.494;2023-10-31T02:48:32;2.22;;;1.10;;
21110;SDS011;10713;51.912;4.494;2023-10-31T02:51:03;2.08;;;1.00;;
21110;SDS011;10713;51.912;4.494;2023-10-31T02:53:29;1.85;;;1.25;;
21110;SDS011;10713;51.912;4.494;2023-10-31T02:55:55;1.73;;;0.90;;
21110;SDS011;10713;51.912;4.494;2023-10-31T02:58:20;3.25;;;1.02;;
21110;SDS011;10713;51.912;4.494;2023-10-31T03:00:46;1.23;;;0.75;;
21110;SDS011;10713;51.912;4.494;2023-10-31T03:03:11;2.40;;;0.90;;
21110;SDS011;10713;51.912;4.494;2023-10-31T03:05:36;1.27;;;0.75;;
21110;SDS011;10713;51.912;4.494;2023-10-31T03:08:02;1.52;;;0.60;;
21110;SDS011;10713;51.912;4.494;2023-10-31T03:10:27;1.10;;;0.65;;
21110;SDS011;10713;51.912;4.494;2023-10-31T03:12:52;0.65;;;0.57;;
21110;SDS011;10713;51.912;4.494;2023-10-31T03:15:18;3.30;;;0.80;;
21110;SDS011;10713;51.912;4.494;2023-10-31T03:17:43;1.15;;;0.77;;
21110;SDS011;10713;51.912;4.494;2023-10-31T03:20:08;2.63;;;0.88;;
21110;SDS011;10713;51.912;4.494;2023-10-31T03:22:34;7.75;;;1.17;;
21110;SDS011;10713;51.912;4.494;2023-10-31T03:25:00;1.75;;;1.15;;
21110;SDS011;10713;51.912;4.494;2023-10-31T03:27:26;3.05;;;1.35;;
21110;SDS011;10713;51.912;4.494;2023-10-31T03:29:51;6.10;;;1.90;;
21110;SDS011;10713;51.912;4.494;2023-10-31T03:32:16;5.40;;;1.67;;
21110;SDS011;10713;51.912;4.494;2023-10-31T03:34:42;5.35;;;1.88;;
21110;SDS011;10713;51.912;4.494;2023-10-31T03:37:07;4.75;;;1.30;;
21110;SDS011;10713;51.912;4.494;2023-10-31T03:39:32;4.68;;;1.92;;
21110;SDS011;10713;51.912;4.494;2023-10-31T03:41:58;6.03;;;2.10;;
21110;SDS011;10713;51.912;4.494;2023-10-31T03:44:24;7.65;;;2.35;;
21110;SDS011;10713;51.912;4.494;2023-10-31T03:46:49;2.58;;;1.33;;
21110;SDS011;10713;51.912;4.494;2023-10-31T03:49:14;1.77;;;1.00;;
21110;SDS011;10713;51.912;4.494;2023-10-31T03:51:40;2.25;;;0.65;;
21110;SDS011;10713;51.912;4.494;2023-10-31T03:54:05;3.50;;;0.90;;
21110;SDS011;10713;51.912;4.494;2023-10-31T03:56:37;1.27;;;0.75;;
21110;SDS011;10713;51.912;4.494;2023-10-31T03:59:03;2.97;;;1.23;;
21110;SDS011;10713;51.912;4.494;2023-10-31T04:01:29;3.10;;;1.15;;
21110;SDS011;10713;51.912;4.494;2023-10-31T04:03:54;2.95;;;1.20;;
21110;SDS011;10713;51.912;4.494;2023-10-31T04:06:19;4.38;;;0.90;;
21110;SDS011;10713;51.912;4.494;2023-10-31T04:08:44;2.58;;;1.33;;
21110;SDS011;10713;51.912;4.494;2023-10-31T04:11:10;0.52;;;0.50;;
21110;SDS011;10713;51.912;4.494;2023-10-31T04:13:35;1.88;;;0.70;;
21110;SDS011;10713;51.912;4.494;2023-10-31T04:16:00;2.65;;;0.40;;
21110;SDS011;10713;51.912;4.494;2023-10-31T04:18:26;5.35;;;0.70;;
21110;SDS011;10713;51.912;4.494;2023-10-31T04:20:51;0.45;;;0.40;;
21110;SDS011;10713;51.912;4.494;2023-10-31T04:23:17;4.28;;;0.60;;
21110;SDS011;10713;51.912;4.494;2023-10-31T04:25:42;0.50;;;0.40;;
21110;SDS011;10713;51.912;4.494;2023-10-31T04:28:07;0.28;;;0.25;;
21110;SDS011;10713;51.912;4.494;2023-10-31T04:30:33;4.10;;;0.70;;
21110;SDS011;10713;51.912;4.494;2023-10-31T04:32:58;0.77;;;0.57;;
21110;SDS011;10713;51.912;4.494;2023-10-31T04:35:23;2.65;;;0.63;;
21110;SDS011;10713;51.912;4.494;2023-10-31T04:37:49;2.67;;;0.45;;
21110;SDS011;10713;51.912;4.494;2023-10-31T04:40:14;2.45;;;0.35;;
21110;SDS011;10713;51.912;4.494;2023-10-31T04:42:39;1.23;;;0.50;;
21110;SDS011;10713;51.912;4.494;2023-10-31T04:45:06;5.28;;;0.60;;
21110;SDS011;10713;51.912;4.494;2023-10-31T04:47:32;2.30;;;0.60;;
21110;SDS011;10713;51.912;4.494;2023-10-31T04:49:57;3.53;;;0.43;;
21110;SDS011;10713;51.912;4.494;2023-10-31T04:52:22;0.47;;;0.40;;
21110;SDS011;10713;51.912;4.494;2023-10-31T04:54:50;0.95;;;0.50;;
21110;SDS011;10713;51.912;4.494;2023-10-31T04:57:16;2.63;;;0.45;;
21110;SDS011;10713;51.912;4.494;2023-10-31T04:59:42;0.70;;;0.40;;
21110;SDS011;10713;51.912;4.494;2023-10-31T05:02:07;0.40;;;0.40;;
21110;SDS011;10713;51.912;4.494;2023-10-31T05:04:32;0.57;;;0.40;;
21110;SDS011;10713;51.912;4.494;2023-10-31T05:06:58;0.50;;;0.40;;
21110;SDS011;10713;51.912;4.494;2023-10-31T05:09:23;2.20;;;0.75;;
21110;SDS011;10713;51.912;4.494;2023-10-31T05:11:49;4.57;;;0.75;;
21110;SDS011;10713;51.912;4.494;2023-10-31T05:14:14;1.13;;;0.68;;
21110;SDS011;10713;51.912;4.494;2023-10-31T05:16:43;2.05;;;0.98;;
21110;SDS011;10713;51.912;4.494;2023-10-31T05:19:08;0.88;;;0.57;;
21110;SDS011;10713;51.912;4.494;2023-10-31T05:21:34;0.68;;;0.55;;
21110;SDS011;10713;51.912;4.494;2023-10-31T05:24:00;2.42;;;1.00;;
21110;SDS011;10713;51.912;4.494;2023-10-31T05:26:26;4.20;;;1.58;;
21110;SDS011;10713;51.912;4.494;2023-10-31T05:28:52;6.43;;;1.52;;
21110;SDS011;10713;51.912;4.494;2023-10-31T05:31:18;1.55;;;0.85;;
21110;SDS011;10713;51.912;4.494;2023-10-31T05:33:43;2.72;;;1.33;;
21110;SDS011;10713;51.912;4.494;2023-10-31T05:36:21;1.90;;;1.10;;
21110;SDS011;10713;51.912;4.494;2023-10-31T05:38:47;1.83;;;0.70;;
21110;SDS011;10713;51.912;4.494;2023-10-31T05:41:13;2.42;;;1.13;;
21110;SDS011;10713;51.912;4.494;2023-10-31T05:43:39;3.30;;;0.90;;
21110;SDS011;10713;51.912;4.494;2023-10-31T05:46:05;4.60;;;1.98;;
21110;SDS011;10713;51.912;4.494;2023-10-31T05:48:31;2.08;;;1.20;;
21110;SDS011;10713;51.912;4.494;2023-10-31T05:50:56;1.15;;;0.70;;
21110;SDS011;10713;51.912;4.494;2023-10-31T05:53:22;0.70;;;0.65;;
21110;SDS011;10713;51.912;4.494;2023-10-31T05:55:47;0.65;;;0.55;;
21110;SDS011;10713;51.912;4.494;2023-10-31T05:58:12;0.65;;;0.43;;
21110;SDS011;10713;51.912;4.494;2023-10-31T06:00:38;0.60;;;0.47;;
21110;SDS011;10713;51.912;4.494;2023-10-31T06:03:03;0.55;;;0.50;;
21110;SDS011;10713;51.912;4.494;2023-10-31T06:05:28;3.10;;;0.50;;
21110;SDS011;10713;51.912;4.494;2023-10-31T06:07:54;1.55;;;0.40;;
21110;SDS011;10713;51.912;4.494;2023-10-31T06:10:20;0.68;;;0.60;;
21110;SDS011;10713;51.912;4.494;2023-10-31T06:12:46;5.10;;;0.63;;
21110;SDS011;10713;51.912;4.494;2023-10-31T06:15:12;0.90;;;0.60;;
21110;SDS011;10713;51.912;4.494;2023-10-31T06:17:37;4.63;;;0.90;;
21110;SDS011;10713;51.912;4.494;2023-10-31T06:20:02;1.38;;;0.70;;
21110;SDS011;10713;51.912;4.494;2023-10-31T06:22:28;1.75;;;0.80;;
21110;SDS011;10713;51.912;4.494;2023-10-31T06:24:53;1.00;;;0.50;;
21110;SDS011;10713;51.912;4.494;2023-10-31T06:27:18;2.30;;;1.05;;
21110;SDS011;10713;51.912;4.494;2023-10-31T06:29:44;1.20;;;0.90;;
21110;SDS011;10713;51.912;4.494;2023-10-31T06:32:09;1.23;;;0.88;;
21110;SDS011;10713;51.912;4.494;2023-10-31T06:34:34;3.65;;;1.45;;
21110;SDS011;10713;51.912;4.494;2023-10-31T06:37:00;1.58;;;0.80;;
21110;SDS011;10713;51.912;4.494;2023-10-31T06:39:25;3.33;;;1.17;;
21110;SDS011;10713;51.912;4.494;2023-10-31T06:41:53;6.97;;;1.40;;
21110;SDS011;10713;51.912;4.494;2023-10-31T06:44:19;5.35;;;1.23;;
21110;SDS011;10713;51.912;4.494;2023-10-31T06:46:45;5.65;;;1.20;;
21110;SDS011;10713;51.912;4.494;2023-10-31T06:49:10;4.93;;;1.80;;
21110;SDS011;10713;51.912;4.494;2023-10-31T06:51:35;8.18;;;2.25;;
21110;SDS011;10713;51.912;4.494;2023-10-31T06:54:01;3.75;;;1.08;;
21110;SDS011;10713;51.912;4.494;2023-10-31T06:56:26;3.13;;;1.38;;
21110;SDS011;10713;51.912;4.494;2023-10-31T06:58:53;5.60;;;1.45;;
21110;SDS011;10713;51.912;4.494;2023-10-31T07:01:19;5.07;;;1.33;;
21110;SDS011;10713;51.912;4.494;2023-10-31T07:03:44;3.63;;;1.20;;
21110;SDS011;10713;51.912;4.494;2023-10-31T07:06:09;2.67;;;1.63;;
21110;SDS011;10713;51.912;4.494;2023-10-31T07:08:35;9.85;;;1.48;;
21110;SDS011;10713;51.912;4.494;2023-10-31T07:11:00;3.05;;;1.40;;
21110;SDS011;10713;51.912;4.494;2023-10-31T07:13:25;4.28;;;1.50;;
21110;SDS011;10713;51.912;4.494;2023-10-31T07:15:51;3.35;;;1.80;;
21110;SDS011;10713;51.912;4.494;2023-10-31T07:18:16;6.50;;;1.42;;
21110;SDS011;10713;51.912;4.494;2023-10-31T07:20:41;10.13;;;2.33;;
21110;SDS011;10713;51.912;4.494;2023-10-31T07:23:07;11.55;;;1.30;;
21110;SDS011;10713;51.912;4.494;2023-10-31T07:25:32;15.75;;;2.58;;
21110;SDS011;10713;51.912;4.494;2023-10-31T07:27:57;10.23;;;2.58;;
21110;SDS011;10713;51.912;4.494;2023-10-31T07:30:23;9.52;;;2.55;;
21110;SDS011;10713;51.912;4.494;2023-10-31T07:32:48;3.45;;;1.77;;
21110;SDS011;10713;51.912;4.494;2023-10-31T07:35:13;9.48;;;2.92;;
21110;SDS011;10713;51.912;4.494;2023-10-31T07:37:39;6.68;;;2.45;;
21110;SDS011;10713;51.912;4.494;2023-10-31T07:40:04;5.32;;;3.08;;
21110;SDS011;10713;51.912;4.494;2023-10-31T07:42:30;10.77;;;2.92;;
21110;SDS011;10713;51.912;4.494;2023-10-31T07:44:55;5.28;;;3.20;;
21110;SDS011;10713;51.912;4.494;2023-10-31T07:47:21;8.05;;;3.40;;
21110;SDS011;10713;51.912;4.494;2023-10-31T07:49:46;7.38;;;2.83;;
21110;SDS011;10713;51.912;4.494;2023-10-31T07:52:13;9.20;;;3.67;;
21110;SDS011;10713;51.912;4.494;2023-10-31T07:54:38;9.23;;;2.90;;
21110;SDS011;10713;51.912;4.494;2023-10-31T07:57:05;10.75;;;3.28;;
21110;SDS011;10713;51.912;4.494;2023-10-31T07:59:33;8.02;;;3.40;;
21110;SDS011;10713;51.912;4.494;2023-10-31T08:01:58;5.95;;;2.63;;
21110;SDS011;10713;51.912;4.494;2023-10-31T08:04:24;13.90;;;3.40;;
21110;SDS011;10713;51.912;4.494;2023-10-31T08:06:50;7.18;;;3.40;;
21110;SDS011;10713;51.912;4.494;2023-10-31T08:09:15;14.52;;;4.05;;
21110;SDS011;10713;51.912;4.494;2023-10-31T08:11:41;8.77;;;3.67;;
21110;SDS011;10713;51.912;4.494;2023-10-31T08:14:06;11.00;;;3.60;;
21110;SDS011;10713;51.912;4.494;2023-10-31T08:16:32;8.90;;;3.78;;
21110;SDS011;10713;51.912;4.494;2023-10-31T08:18:57;11.32;;;4.13;;
21110;SDS011;10713;51.912;4.494;2023-10-31T08:21:22;11.48;;;4.45;;
21110;SDS011;10713;51.912;4.494;2023-10-31T08:23:48;43.92;;;7.20;;
21110;SDS011;10713;51.912;4.494;2023-10-31T08:26:13;13.20;;;4.78;;
21110;SDS011;10713;51.912;4.494;2023-10-31T08:28:40;7.43;;;3.63;;
21110;SDS011;10713;51.912;4.494;2023-10-31T08:31:05;9.27;;;3.30;;
21110;SDS011;10713;51.912;4.494;2023-10-31T08:33:31;11.38;;;3.40;;
21110;SDS011;10713;51.912;4.494;2023-10-31T08:35:56;11.35;;;3.50;;
21110;SDS011;10713;51.912;4.494;2023-10-31T08:38:22;5.13;;;3.22;;
21110;SDS011;10713;51.912;4.494;2023-10-31T08:40:47;9.82;;;3.40;;
21110;SDS011;10713;51.912;4.494;2023-10-31T08:43:14;7.07;;;2.83;;
21110;SDS011;10713;51.912;4.494;2023-10-31T08:45:39;9.30;;;3.60;;
21110;SDS011;10713;51.912;4.494;2023-10-31T08:48:04;9.18;;;2.83;;
21110;SDS011;10713;51.912;4.494;2023-10-31T08:50:30;7.85;;;2.55;;
21110;SDS011;10713;51.912;4.494;2023-10-31T08:52:55;5.65;;;2.22;;
21110;SDS011;10713;51.912;4.494;2023-10-31T08:55:21;6.65;;;2.50;;
21110;SDS011;10713;51.912;4.494;2023-10-31T08:57:46;6.18;;;2.40;;
21110;SDS011;10713;51.912;4.494;2023-10-31T09:00:12;13.75;;;3.15;;
21110;SDS011;10713;51.912;4.494;2023-10-31T09:02:38;13.13;;;3.58;;
21110;SDS011;10713;51.912;4.494;2023-10-31T09:05:03;5.95;;;2.78;;
21110;SDS011;10713;51.912;4.494;2023-10-31T09:07:29;10.50;;;3.22;;
21110;SDS011;10713;51.912;4.494;2023-10-31T09:09:54;3.95;;;2.15;;
21110;SDS011;10713;51.912;4.494;2023-10-31T09:12:20;6.55;;;2.20;;
21110;SDS011;10713;51.912;4.494;2023-10-31T09:14:45;6.70;;;2.15;;
21110;SDS011;10713;51.912;4.494;2023-10-31T09:17:10;6.20;;;2.05;;
21110;SDS011;10713;51.912;4.494;2023-10-31T09:19:36;11.27;;;3.33;;
21110;SDS011;10713;51.912;4.494;2023-10-31T09:22:01;8.30;;;2.10;;
21110;SDS011;10713;51.912;4.494;2023-10-31T09:24:27;8.90;;;2.88;;
21110;SDS011;10713;51.912;4.494;2023-10-31T09:26:52;11.25;;;2.65;;
21110;SDS011;10713;51.912;4.494;2023-10-31T09:29:17;7.28;;;2.17;;
21110;SDS011;10713;51.912;4.494;2023-10-31T09:31:43;18.85;;;3.90;;
21110;SDS011;10713;51.912;4.494;2023-10-31T09:34:08;7.50;;;2.58;;
21110;SDS011;10713;51.912;4.494;2023-10-31T09:36:34;8.43;;;3.10;;
21110;SDS011;10713;51.912;4.494;2023-10-31T09:39:00;7.72;;;3.13;;
21110;SDS011;10713;51.912;4.494;2023-10-31T09:41:25;12.07;;;3.00;;
21110;SDS011;10713;51.912;4.494;2023-10-31T09:43:50;5.65;;;1.85;;
21110;SDS011;10713;51.912;4.494;2023-10-31T09:46:16;8.70;;;1.67;;
21110;SDS011;10713;51.912;4.494;2023-10-31T09:48:42;8.60;;;2.50;;
21110;SDS011;10713;51.912;4.494;2023-10-31T09:51:08;6.72;;;1.83;;
21110;SDS011;10713;51.912;4.494;2023-10-31T09:53:35;7.88;;;1.77;;
21110;SDS011;10713;51.912;4.494;2023-10-31T09:56:03;7.05;;;2.08;;
21110;SDS011;10713;51.912;4.494;2023-10-31T09:58:29;2.85;;;1.40;;
21110;SDS011;10713;51.912;4.494;2023-10-31T10:00:55;7.20;;;1.95;;
21110;SDS011;10713;51.912;4.494;2023-10-31T10:03:20;5.05;;;1.73;;
21110;SDS011;10713;51.912;4.494;2023-10-31T10:05:47;6.15;;;2.20;;
21110;SDS011;10713;51.912;4.494;2023-10-31T10:08:14;4.53;;;2.40;;
21110;SDS011;10713;51.912;4.494;2023-10-31T10:10:39;6.95;;;2.50;;
21110;SDS011;10713;51.912;4.494;2023-10-31T10:13:05;7.78;;;2.78;;
21110;SDS011;10713;51.912;4.494;2023-10-31T10:15:30;8.63;;;2.20;;
21110;SDS011;10713;51.912;4.494;2023-10-31T10:18:07;10.82;;;2.58;;
21110;SDS011;10713;51.912;4.494;2023-10-31T10:20:33;8.35;;;3.20;;
21110;SDS011;10713;51.912;4.494;2023-10-31T10:23:02;6.78;;;2.63;;
21110;SDS011;10713;51.912;4.494;2023-10-31T10:25:29;3.33;;;2.38;;
21110;SDS011;10713;51.912;4.494;2023-10-31T10:27:55;7.20;;;3.38;;
21110;SDS011;10713;51.912;4.494;2023-10-31T10:30:21;6.45;;;3.30;;
21110;SDS011;10713;51.912;4.494;2023-10-31T10:32:48;10.18;;;4.55;;
21110;SDS011;10713;51.912;4.494;2023-10-31T10:35:16;13.63;;;5.38;;
21110;SDS011;10713;51.912;4.494;2023-10-31T10:37:41;14.50;;;4.97;;
21110;SDS011;10713;51.912;4.494;2023-10-31T10:40:10;26.20;;;8.00;;
21110;SDS011;10713;51.912;4.494;2023-10-31T10:42:45;21.73;;;7.85;;
21110;SDS011;10713;51.912;4.494;2023-10-31T10:45:12;14.73;;;6.43;;
21110;SDS011;10713;51.912;4.494;2023-10-31T10:47:40;18.77;;;7.72;;
21110;SDS011;10713;51.912;4.494;2023-10-31T10:50:10;16.25;;;6.65;;
21110;SDS011;10713;51.912;4.494;2023-10-31T10:52:44;29.65;;;9.35;;
21110;SDS011;10713;51.912;4.494;2023-10-31T10:55:20;21.73;;;7.55;;
21110;SDS011;10713;51.912;4.494;2023-10-31T10:58:08;25.17;;;7.82;;
21110;SDS011;10713;51.912;4.494;2023-10-31T11:00:38;26.63;;;9.05;;
21110;SDS011;10713;51.912;4.494;2023-10-31T11:03:05;25.85;;;8.23;;
21110;SDS011;10713;51.912;4.494;2023-10-31T11:05:31;20.77;;;8.00;;
21110;SDS011;10713;51.912;4.494;2023-10-31T11:07:57;15.70;;;6.85;;
21110;SDS011;10713;51.912;4.494;2023-10-31T11:10:24;17.77;;;7.30;;
21110;SDS011;10713;51.912;4.494;2023-10-31T11:12:50;18.52;;;6.50;;
21110;SDS011;10713;51.912;4.494;2023-10-31T11:15:16;16.35;;;6.93;;
21110;SDS011;10713;51.912;4.494;2023-10-31T11:17:43;19.23;;;6.72;;
21110;SDS011;10713;51.912;4.494;2023-10-31T11:20:11;16.30;;;6.72;;
21110;SDS011;10713;51.912;4.494;2023-10-31T11:22:45;17.52;;;6.88;;
21110;SDS011;10713;51.912;4.494;2023-10-31T11:25:15;16.33;;;6.57;;
21110;SDS011;10713;51.912;4.494;2023-10-31T11:27:46;16.98;;;6.57;;
21110;SDS011;10713;51.912;4.494;2023-10-31T11:30:28;11.77;;;4.97;;
21110;SDS011;10713;51.912;4.494;2023-10-31T11:33:03;11.93;;;5.10;;
21110;SDS011;10713;51.912;4.494;2023-10-31T11:35:30;17.20;;;5.82;;
21110;SDS011;10713;51.912;4.494;2023-10-31T11:38:01;13.45;;;5.32;;
21110;SDS011;10713;51.912;4.494;2023-10-31T11:40:34;15.45;;;5.25;;
21110;SDS011;10713;51.912;4.494;2023-10-31T11:43:04;14.25;;;4.78;;
21110;SDS011;10713;51.912;4.494;2023-10-31T11:48:03;10.52;;;4.88;;
21110;SDS011;10713;51.912;4.494;2023-10-31T11:50:30;13.88;;;5.80;;
21110;SDS011;10713;51.912;4.494;2023-10-31T11:53:00;13.20;;;4.95;;
21110;SDS011;10713;51.912;4.494;2023-10-31T11:55:27;10.77;;;5.13;;
21110;SDS011;10713;51.912;4.494;2023-10-31T11:57:53;26.10;;;7.65;;
21110;SDS011;10713;51.912;4.494;2023-10-31T12:00:22;12.60;;;4.93;;
21110;SDS011;10713;51.912;4.494;2023-10-31T12:03:01;15.63;;;5.40;;
21110;SDS011;10713;51.912;4.494;2023-10-31T12:05:27;15.43;;;5.38;;
21110;SDS011;10713;51.912;4.494;2023-10-31T12:07:53;12.10;;;5.03;;
21110;SDS011;10713;51.912;4.494;2023-10-31T12:10:25;10.18;;;4.68;;
21110;SDS011;10713;51.912;4.494;2023-10-31T12:12:55;12.63;;;4.80;;
21110;SDS011;10713;51.912;4.494;2023-10-31T12:15:21;11.30;;;4.70;;
21110;SDS011;10713;51.912;4.494;2023-10-31T12:17:47;12.35;;;6.20;;
21110;SDS011;10713;51.912;4.494;2023-10-31T12:20:13;11.27;;;5.57;;
21110;SDS011;10713;51.912;4.494;2023-10-31T12:22:39;14.02;;;6.15;;
21110;SDS011;10713;51.912;4.494;2023-10-31T12:25:06;14.38;;;5.43;;
21110;SDS011;10713;51.912;4.494;2023-10-31T12:27:46;18.20;;;4.82;;
21110;SDS011;10713;51.912;4.494;2023-10-31T12:30:19;14.20;;;6.75;;
21110;SDS011;10713;51.912;4.494;2023-10-31T12:32:52;14.05;;;6.15;;
21110;SDS011;10713;51.912;4.494;2023-10-31T12:35:20;11.40;;;5.88;;
21110;SDS011;10713;51.912;4.494;2023-10-31T12:37:47;15.77;;;5.63;;
21110;SDS011;10713;51.912;4.494;2023-10-31T12:40:16;19.77;;;6.30;;
21110;SDS011;10713;51.912;4.494;2023-10-31T12:42:44;12.18;;;6.00;;
21110;SDS011;10713;51.912;4.494;2023-10-31T12:45:11;17.98;;;6.22;;
21110;SDS011;10713;51.912;4.494;2023-10-31T12:47:37;15.05;;;6.18;;
21110;SDS011;10713;51.912;4.494;2023-10-31T12:50:15;15.57;;;6.70;;
21110;SDS011;10713;51.912;4.494;2023-10-31T12:52:49;18.60;;;6.80;;
21110;SDS011;10713;51.912;4.494;2023-10-31T12:55:22;10.85;;;5.93;;
21110;SDS011;10713;51.912;4.494;2023-10-31T12:57:48;15.90;;;6.90;;
21110;SDS011;10713;51.912;4.494;2023-10-31T13:00:15;16.55;;;7.45;;
21110;SDS011;10713;51.912;4.494;2023-10-31T13:02:49;16.48;;;7.05;;
21110;SDS011;10713;51.912;4.494;2023-10-31T13:05:15;19.70;;;8.65;;
21110;SDS011;10713;51.912;4.494;2023-10-31T13:07:53;26.90;;;10.25;;
21110;SDS011;10713;51.912;4.494;2023-10-31T13:10:20;26.30;;;11.15;;
21110;SDS011;10713;51.912;4.494;2023-10-31T13:12:50;27.33;;;11.10;;
21110;SDS011;10713;51.912;4.494;2023-10-31T13:15:16;30.00;;;12.00;;
21110;SDS011;10713;51.912;4.494;2023-10-31T13:17:45;33.17;;;12.38;;
21110;SDS011;10713;51.912;4.494;2023-10-31T13:20:12;26.80;;;10.77;;
21110;SDS011;10713;51.912;4.494;2023-10-31T13:22:39;26.15;;;10.15;;
21110;SDS011;10713;51.912;4.494;2023-10-31T13:25:06;27.58;;;11.27;;
21110;SDS011;10713;51.912;4.494;2023-10-31T13:27:50;23.52;;;10.07;;
21110;SDS011;10713;51.912;4.494;2023-10-31T13:30:18;23.80;;;9.13;;
21110;SDS011;10713;51.912;4.494;2023-10-31T13:32:44;25.88;;;9.68;;
21110;SDS011;10713;51.912;4.494;2023-10-31T13:35:09;15.10;;;7.75;;
21110;SDS011;10713;51.912;4.494;2023-10-31T13:37:35;15.00;;;7.32;;
21110;SDS011;10713;51.912;4.494;2023-10-31T13:40:01;21.83;;;7.35;;
21110;SDS011;10713;51.912;4.494;2023-10-31T13:42:27;16.40;;;6.80;;
21110;SDS011;10713;51.912;4.494;2023-10-31T13:44:53;15.23;;;6.97;;
21110;SDS011;10713;51.912;4.494;2023-10-31T13:47:18;14.02;;;6.15;;
21110;SDS011;10713;51.912;4.494;2023-10-31T13:49:43;11.48;;;5.40;;
21110;SDS011;10713;51.912;4.494;2023-10-31T13:52:09;13.93;;;5.65;;
21110;SDS011;10713;51.912;4.494;2023-10-31T13:54:35;12.50;;;5.90;;
21110;SDS011;10713;51.912;4.494;2023-10-31T13:57:00;11.15;;;5.65;;
21110;SDS011;10713;51.912;4.494;2023-10-31T13:59:26;14.27;;;5.68;;
21110;SDS011;10713;51.912;4.494;2023-10-31T14:01:51;23.25;;;5.07;;
21110;SDS011;10713;51.912;4.494;2023-10-31T14:04:17;15.35;;;5.60;;
21110;SDS011;10713;51.912;4.494;2023-10-31T14:06:43;9.23;;;4.72;;
21110;SDS011;10713;51.912;4.494;2023-10-31T14:09:09;13.45;;;5.35;;
21110;SDS011;10713;51.912;4.494;2023-10-31T14:11:36;14.02;;;5.25;;
21110;SDS011;10713;51.912;4.494;2023-10-31T14:14:02;8.23;;;4.18;;
21110;SDS011;10713;51.912;4.494;2023-10-31T14:16:34;8.27;;;3.88;;
21110;SDS011;10713;51.912;4.494;2023-10-31T14:19:06;10.95;;;5.05;;
21110;SDS011;10713;51.912;4.494;2023-10-31T14:21:32;8.95;;;4.45;;
21110;SDS011;10713;51.912;4.494;2023-10-31T14:23:58;9.95;;;4.28;;
21110;SDS011;10713;51.912;4.494;2023-10-31T14:26:24;12.80;;;4.72;;
21110;SDS011;10713;51.912;4.494;2023-10-31T14:28:49;13.57;;;4.72;;
21110;SDS011;10713;51.912;4.494;2023-10-31T14:31:15;12.93;;;4.85;;
21110;SDS011;10713;51.912;4.494;2023-10-31T14:33:41;12.07;;;4.80;;
21110;SDS011;10713;51.912;4.494;2023-10-31T14:36:07;17.25;;;4.53;;
21110;SDS011;10713;51.912;4.494;2023-10-31T14:38:35;9.55;;;3.72;;
21110;SDS011;10713;51.912;4.494;2023-10-31T14:41:01;13.65;;;4.40;;